sensor_id;sensor_type;location;lat;lon;timestamp;P1;durP1;ratioP1;P2;durP2;ratioP2
75342;SDS011;63936;51.006;13.764;2023-03-01T00:00:04;49;;;29;;
75342;SDS011;63936;51.006;13.764;2023-03-01T00:02:01;49;;;28;;
75342;SDS011;63936;51.006;13.764;2023-03-01T00:04:02;49;;;28;;
75342;SDS011;63936;51.006;13.764;2023-03-01T00:06:01;44;;;26;;
75342;SDS011;63936;51.006;13.764;2023-03-01T00:08:01;34;;;20;;
75342;SDS011;63936;51.006;13.764;2023-03-01T00:10:02;34;;;20;;
75342;SDS011;63936;51.006;13.764;2023-03-01T00:12:01;42;;;25;;
75342;SDS011;63936;51.006;13.764;2023-03-01T00:14:02;34;;;18;;
75342;SDS011;63936;51.006;13.764;2023-03-01T00:16:01;34;;;18;;
75342;SDS011;63936;51.006;13.764;2023-03-01T00:18:01;41;;;23;;
75342;SDS011;63936;51.006;13.764;2023-03-01T00:20:02;37;;;20;;
75342;SDS011;63936;51.006;13.764;2023-03-01T00:22:02;41;;;24;;
75342;SDS011;63936;51.006;13.764;2023-03-01T00:24:02;34;;;18;;
75342;SDS011;63936;51.006;13.764;2023-03-01T00:26:02;35;;;19;;
75342;SDS011;63936;51.006;13.764;2023-03-01T00:28:01;41;;;22;;
75342;SDS011;63936;51.006;13.764;2023-03-01T00:30:02;46;;;26;;
75342;SDS011;63936;51.006;13.764;2023-03-01T00:32:01;35;;;20;;
75342;SDS011;63936;51.006;13.764;2023-03-01T00:34:02;35;;;20;;
75342;SDS011;63936;51.006;13.764;2023-03-01T00:36:01;38;;;23;;
75342;SDS011;63936;51.006;13.764;2023-03-01T00:38:01;31;;;18;;
75342;SDS011;63936;51.006;13.764;2023-03-01T00:40:02;31;;;18;;
75342;SDS011;63936;51.006;13.764;2023-03-01T00:42:01;39;;;23;;
75342;SDS011;63936;51.006;13.764;2023-03-01T00:44:01;39;;;23;;
75342;SDS011;63936;51.006;13.764;2023-03-01T00:46:02;45;;;26;;
75342;SDS011;63936;51.006;13.764;2023-03-01T00:48:02;45;;;26;;
75342;SDS011;63936;51.006;13.764;2023-03-01T00:50:02;43;;;25;;
75342;SDS011;63936;51.006;13.764;2023-03-01T00:52:01;30;;;19;;
75342;SDS011;63936;51.006;13.764;2023-03-01T00:54:02;30;;;19;;
75342;SDS011;63936;51.006;13.764;2023-03-01T00:56:02;37;;;22;;
75342;SDS011;63936;51.006;13.764;2023-03-01T00:58:01;37;;;22;;
75342;SDS011;63936;51.006;13.764;2023-03-01T01:00:02;44;;;26;;
75342;SDS011;63936;51.006;13.764;2023-03-01T01:02:04;38;;;20;;
75342;SDS011;63936;51.006;13.764;2023-03-01T01:04:03;38;;;20;;
75342;SDS011;63936;51.006;13.764;2023-03-01T01:06:04;39;;;23;;
75342;SDS011;63936;51.006;13.764;2023-03-01T01:08:03;39;;;23;;
75342;SDS011;63936;51.006;13.764;2023-03-01T01:10:05;41;;;24;;
75342;SDS011;63936;51.006;13.764;2023-03-01T01:12:02;41;;;24;;
75342;SDS011;63936;51.006;13.764;2023-03-01T01:14:02;41;;;24;;
75342;SDS011;63936;51.006;13.764;2023-03-01T01:16:02;42;;;24;;
75342;SDS011;63936;51.006;13.764;2023-03-01T01:18:02;42;;;24;;
75342;SDS011;63936;51.006;13.764;2023-03-01T01:20:03;36;;;24;;
75342;SDS011;63936;51.006;13.764;2023-03-01T01:22:02;36;;;24;;
75342;SDS011;63936;51.006;13.764;2023-03-01T01:24:02;43;;;25;;
75342;SDS011;63936;51.006;13.764;2023-03-01T01:26:03;43;;;25;;
75342;SDS011;63936;51.006;13.764;2023-03-01T01:28:01;43;;;25;;
75342;SDS011;63936;51.006;13.764;2023-03-01T01:30:04;43;;;25;;
75342;SDS011;63936;51.006;13.764;2023-03-01T01:32:02;44;;;25;;
75342;SDS011;63936;51.006;13.764;2023-03-01T01:34:03;44;;;25;;
75342;SDS011;63936;51.006;13.764;2023-03-01T01:36:04;43;;;25;;
75342;SDS011;63936;51.006;13.764;2023-03-01T01:38:03;43;;;25;;
75342;SDS011;63936;51.006;13.764;2023-03-01T01:40:06;41;;;24;;
75342;SDS011;63936;51.006;13.764;2023-03-01T01:42:04;31;;;19;;
75342;SDS011;63936;51.006;13.764;2023-03-01T01:44:11;31;;;19;;
75342;SDS011;63936;51.006;13.764;2023-03-01T01:46:04;37;;;23;;
75342;SDS011;63936;51.006;13.764;2023-03-01T01:48:03;37;;;23;;
75342;SDS011;63936;51.006;13.764;2023-03-01T01:50:08;40;;;23;;
75342;SDS011;63936;51.006;13.764;2023-03-01T01:52:05;33;;;18;;
75342;SDS011;63936;51.006;13.764;2023-03-01T01:54:05;33;;;18;;
75342;SDS011;63936;51.006;13.764;2023-03-01T01:56:04;38;;;22;;
75342;SDS011;63936;51.006;13.764;2023-03-01T01:58:04;38;;;22;;
75342;SDS011;63936;51.006;13.764;2023-03-01T02:00:10;42;;;24;;
75342;SDS011;63936;51.006;13.764;2023-03-01T02:02:03;29;;;16;;
75342;SDS011;63936;51.006;13.764;2023-03-01T02:04:02;29;;;16;;
75342;SDS011;63936;51.006;13.764;2023-03-01T02:06:03;40;;;23;;
75342;SDS011;63936;51.006;13.764;2023-03-01T02:08:02;27;;;15;;
75342;SDS011;63936;51.006;13.764;2023-03-01T02:10:05;27;;;15;;
75342;SDS011;63936;51.006;13.764;2023-03-01T02:12:02;39;;;22;;
75342;SDS011;63936;51.006;13.764;2023-03-01T02:14:02;39;;;22;;
75342;SDS011;63936;51.006;13.764;2023-03-01T02:16:02;41;;;23;;
75342;SDS011;63936;51.006;13.764;2023-03-01T02:18:02;41;;;23;;
75342;SDS011;63936;51.006;13.764;2023-03-01T02:20:07;39;;;23;;
75342;SDS011;63936;51.006;13.764;2023-03-01T02:22:02;41;;;22;;
75342;SDS011;63936;51.006;13.764;2023-03-01T02:24:03;37;;;23;;
75342;SDS011;63936;51.006;13.764;2023-03-01T02:26:01;32;;;18;;
75342;SDS011;63936;51.006;13.764;2023-03-01T02:28:03;32;;;18;;
75342;SDS011;63936;51.006;13.764;2023-03-01T02:30:02;45;;;26;;
75342;SDS011;63936;51.006;13.764;2023-03-01T02:32:02;45;;;26;;
75342;SDS011;63936;51.006;13.764;2023-03-01T02:34:02;45;;;26;;
75342;SDS011;63936;51.006;13.764;2023-03-01T02:36:02;45;;;26;;
75342;SDS011;63936;51.006;13.764;2023-03-01T02:38:01;45;;;26;;
75342;SDS011;63936;51.006;13.764;2023-03-01T02:40:03;40;;;22;;
75342;SDS011;63936;51.006;13.764;2023-03-01T02:42:01;27;;;15;;
75342;SDS011;63936;51.006;13.764;2023-03-01T02:44:01;27;;;15;;
75342;SDS011;63936;51.006;13.764;2023-03-01T02:46:03;40;;;23;;
75342;SDS011;63936;51.006;13.764;2023-03-01T02:48:01;40;;;23;;
75342;SDS011;63936;51.006;13.764;2023-03-01T02:50:02;41;;;24;;
75342;SDS011;63936;51.006;13.764;2023-03-01T02:52:06;41;;;24;;
75342;SDS011;63936;51.006;13.764;2023-03-01T02:54:06;43;;;25;;
75342;SDS011;63936;51.006;13.764;2023-03-01T02:56:01;43;;;25;;
75342;SDS011;63936;51.006;13.764;2023-03-01T02:58:01;43;;;25;;
75342;SDS011;63936;51.006;13.764;2023-03-01T03:00:04;43;;;25;;
75342;SDS011;63936;51.006;13.764;2023-03-01T03:02:03;42;;;24;;
75342;SDS011;63936;51.006;13.764;2023-03-01T03:04:02;42;;;24;;
75342;SDS011;63936;51.006;13.764;2023-03-01T03:06:01;42;;;25;;
75342;SDS011;63936;51.006;13.764;2023-03-01T03:08:02;47;;;27;;
75342;SDS011;63936;51.006;13.764;2023-03-01T03:10:02;47;;;27;;
75342;SDS011;63936;51.006;13.764;2023-03-01T03:12:01;42;;;24;;
75342;SDS011;63936;51.006;13.764;2023-03-01T03:14:01;42;;;24;;
75342;SDS011;63936;51.006;13.764;2023-03-01T03:16:01;40;;;23;;
75342;SDS011;63936;51.006;13.764;2023-03-01T03:18:01;32;;;18;;
75342;SDS011;63936;51.006;13.764;2023-03-01T03:20:02;41;;;20;;
75342;SDS011;63936;51.006;13.764;2023-03-01T03:22:01;44;;;24;;
75342;SDS011;63936;51.006;13.764;2023-03-01T03:24:01;34;;;17;;
75342;SDS011;63936;51.006;13.764;2023-03-01T03:26:01;34;;;17;;
75342;SDS011;63936;51.006;13.764;2023-03-01T03:28:01;42;;;23;;
75342;SDS011;63936;51.006;13.764;2023-03-01T03:30:03;42;;;23;;
75342;SDS011;63936;51.006;13.764;2023-03-01T03:32:01;46;;;24;;
75342;SDS011;63936;51.006;13.764;2023-03-01T03:34:01;46;;;24;;
75342;SDS011;63936;51.006;13.764;2023-03-01T03:36:01;49;;;25;;
75342;SDS011;63936;51.006;13.764;2023-03-01T03:38:03;49;;;25;;
75342;SDS011;63936;51.006;13.764;2023-03-01T03:40:02;56;;;25;;
75342;SDS011;63936;51.006;13.764;2023-03-01T03:42:01;56;;;25;;
75342;SDS011;63936;51.006;13.764;2023-03-01T03:44:01;40;;;23;;
75342;SDS011;63936;51.006;13.764;2023-03-01T03:46:02;40;;;23;;
75342;SDS011;63936;51.006;13.764;2023-03-01T03:48:02;42;;;24;;
75342;SDS011;63936;51.006;13.764;2023-03-01T03:50:03;42;;;24;;
75342;SDS011;63936;51.006;13.764;2023-03-01T03:52:01;45;;;25;;
75342;SDS011;63936;51.006;13.764;2023-03-01T03:54:01;45;;;25;;
75342;SDS011;63936;51.006;13.764;2023-03-01T03:56:01;45;;;26;;
75342;SDS011;63936;51.006;13.764;2023-03-01T03:58:02;45;;;26;;
75342;SDS011;63936;51.006;13.764;2023-03-01T04:00:03;44;;;24;;
75342;SDS011;63936;51.006;13.764;2023-03-01T04:02:02;32;;;18;;
75342;SDS011;63936;51.006;13.764;2023-03-01T04:04:01;32;;;18;;
75342;SDS011;63936;51.006;13.764;2023-03-01T04:06:03;43;;;24;;
75342;SDS011;63936;51.006;13.764;2023-03-01T04:08:03;43;;;24;;
75342;SDS011;63936;51.006;13.764;2023-03-01T04:10:04;42;;;23;;
75342;SDS011;63936;51.006;13.764;2023-03-01T04:12:01;32;;;17;;
75342;SDS011;63936;51.006;13.764;2023-03-01T04:14:01;32;;;17;;
75342;SDS011;63936;51.006;13.764;2023-03-01T04:16:01;40;;;23;;
75342;SDS011;63936;51.006;13.764;2023-03-01T04:18:01;40;;;23;;
75342;SDS011;63936;51.006;13.764;2023-03-01T04:20:01;44;;;25;;
75342;SDS011;63936;51.006;13.764;2023-03-01T04:22:01;44;;;25;;
75342;SDS011;63936;51.006;13.764;2023-03-01T04:24:01;38;;;22;;
75342;SDS011;63936;51.006;13.764;2023-03-01T04:26:01;38;;;22;;
75342;SDS011;63936;51.006;13.764;2023-03-01T04:28:01;40;;;23;;
75342;SDS011;63936;51.006;13.764;2023-03-01T04:30:02;40;;;23;;
75342;SDS011;63936;51.006;13.764;2023-03-01T04:32:01;39;;;23;;
75342;SDS011;63936;51.006;13.764;2023-03-01T04:34:01;39;;;23;;
75342;SDS011;63936;51.006;13.764;2023-03-01T04:36:01;43;;;24;;
75342;SDS011;63936;51.006;13.764;2023-03-01T04:38:01;43;;;24;;
75342;SDS011;63936;51.006;13.764;2023-03-01T04:40:03;40;;;22;;
75342;SDS011;63936;51.006;13.764;2023-03-01T04:42:01;40;;;22;;
75342;SDS011;63936;51.006;13.764;2023-03-01T04:44:01;40;;;23;;
75342;SDS011;63936;51.006;13.764;2023-03-01T04:46:02;38;;;20;;
75342;SDS011;63936;51.006;13.764;2023-03-01T04:48:02;38;;;20;;
75342;SDS011;63936;51.006;13.764;2023-03-01T04:50:02;41;;;22;;
75342;SDS011;63936;51.006;13.764;2023-03-01T04:52:01;41;;;22;;
75342;SDS011;63936;51.006;13.764;2023-03-01T04:54:01;42;;;23;;
75342;SDS011;63936;51.006;13.764;2023-03-01T04:56:01;42;;;23;;
75342;SDS011;63936;51.006;13.764;2023-03-01T04:58:01;45;;;25;;
75342;SDS011;63936;51.006;13.764;2023-03-01T05:00:03;45;;;25;;
75342;SDS011;63936;51.006;13.764;2023-03-01T05:02:01;45;;;25;;
75342;SDS011;63936;51.006;13.764;2023-03-01T05:04:01;43;;;25;;
75342;SDS011;63936;51.006;13.764;2023-03-01T05:06:01;43;;;25;;
75342;SDS011;63936;51.006;13.764;2023-03-01T05:08:02;43;;;25;;
75342;SDS011;63936;51.006;13.764;2023-03-01T05:10:02;38;;;21;;
75342;SDS011;63936;51.006;13.764;2023-03-01T05:12:02;38;;;21;;
75342;SDS011;63936;51.006;13.764;2023-03-01T05:14:02;42;;;24;;
75342;SDS011;63936;51.006;13.764;2023-03-01T05:16:01;42;;;24;;
75342;SDS011;63936;51.006;13.764;2023-03-01T05:18:01;43;;;24;;
75342;SDS011;63936;51.006;13.764;2023-03-01T05:20:01;36;;;20;;
75342;SDS011;63936;51.006;13.764;2023-03-01T05:22:01;41;;;22;;
75342;SDS011;63936;51.006;13.764;2023-03-01T05:24:01;41;;;22;;
75342;SDS011;63936;51.006;13.764;2023-03-01T05:26:02;43;;;24;;
75342;SDS011;63936;51.006;13.764;2023-03-01T05:28:02;37;;;20;;
75342;SDS011;63936;51.006;13.764;2023-03-01T05:30:03;43;;;24;;
75342;SDS011;63936;51.006;13.764;2023-03-01T05:32:02;43;;;24;;
75342;SDS011;63936;51.006;13.764;2023-03-01T05:34:02;38;;;22;;
75342;SDS011;63936;51.006;13.764;2023-03-01T05:36:02;38;;;22;;
75342;SDS011;63936;51.006;13.764;2023-03-01T05:38:01;41;;;23;;
75342;SDS011;63936;51.006;13.764;2023-03-01T05:40:03;41;;;23;;
75342;SDS011;63936;51.006;13.764;2023-03-01T05:42:01;43;;;23;;
75342;SDS011;63936;51.006;13.764;2023-03-01T05:44:01;43;;;23;;
75342;SDS011;63936;51.006;13.764;2023-03-01T05:46:01;47;;;24;;
75342;SDS011;63936;51.006;13.764;2023-03-01T05:48:02;47;;;24;;
75342;SDS011;63936;51.006;13.764;2023-03-01T05:50:03;47;;;24;;
75342;SDS011;63936;51.006;13.764;2023-03-01T05:52:02;35;;;20;;
75342;SDS011;63936;51.006;13.764;2023-03-01T05:54:02;35;;;20;;
75342;SDS011;63936;51.006;13.764;2023-03-01T05:56:02;41;;;22;;
75342;SDS011;63936;51.006;13.764;2023-03-01T05:58:03;41;;;22;;
75342;SDS011;63936;51.006;13.764;2023-03-01T06:00:03;41;;;22;;
75342;SDS011;63936;51.006;13.764;2023-03-01T06:02:02;38;;;20;;
75342;SDS011;63936;51.006;13.764;2023-03-01T06:04:02;38;;;20;;
75342;SDS011;63936;51.006;13.764;2023-03-01T06:06:02;44;;;24;;
75342;SDS011;63936;51.006;13.764;2023-03-01T06:08:02;44;;;24;;
75342;SDS011;63936;51.006;13.764;2023-03-01T06:10:02;41;;;23;;
75342;SDS011;63936;51.006;13.764;2023-03-01T06:12:02;41;;;23;;
75342;SDS011;63936;51.006;13.764;2023-03-01T06:14:01;42;;;23;;
75342;SDS011;63936;51.006;13.764;2023-03-01T06:16:03;42;;;23;;
75342;SDS011;63936;51.006;13.764;2023-03-01T06:18:02;44;;;23;;
75342;SDS011;63936;51.006;13.764;2023-03-01T06:20:03;35;;;19;;
75342;SDS011;63936;51.006;13.764;2023-03-01T06:22:01;42;;;21;;
75342;SDS011;63936;51.006;13.764;2023-03-01T06:24:01;38;;;23;;
75342;SDS011;63936;51.006;13.764;2023-03-01T06:26:04;38;;;23;;
75342;SDS011;63936;51.006;13.764;2023-03-01T06:28:02;38;;;22;;
75342;SDS011;63936;51.006;13.764;2023-03-01T06:30:04;38;;;22;;
75342;SDS011;63936;51.006;13.764;2023-03-01T06:32:02;37;;;22;;
75342;SDS011;63936;51.006;13.764;2023-03-01T06:34:02;34;;;20;;
75342;SDS011;63936;51.006;13.764;2023-03-01T06:36:01;40;;;24;;
75342;SDS011;63936;51.006;13.764;2023-03-01T06:38:03;29;;;16;;
75342;SDS011;63936;51.006;13.764;2023-03-01T06:40:04;29;;;16;;
75342;SDS011;63936;51.006;13.764;2023-03-01T06:42:01;33;;;21;;
75342;SDS011;63936;51.006;13.764;2023-03-01T06:44:03;31;;;18;;
75342;SDS011;63936;51.006;13.764;2023-03-01T06:46:04;27;;;16;;
75342;SDS011;63936;51.006;13.764;2023-03-01T06:48:02;25;;;14;;
75342;SDS011;63936;51.006;13.764;2023-03-01T06:50:06;24;;;14;;
75342;SDS011;63936;51.006;13.764;2023-03-01T06:52:03;25;;;14;;
75342;SDS011;63936;51.006;13.764;2023-03-01T06:54:02;26;;;14;;
75342;SDS011;63936;51.006;13.764;2023-03-01T06:56:02;27;;;14;;
75342;SDS011;63936;51.006;13.764;2023-03-01T06:58:03;25;;;14;;
75342;SDS011;63936;51.006;13.764;2023-03-01T07:00:07;30;;;15;;
75342;SDS011;63936;51.006;13.764;2023-03-01T07:02:05;24;;;15;;
75342;SDS011;63936;51.006;13.764;2023-03-01T07:04:03;32;;;18;;
75342;SDS011;63936;51.006;13.764;2023-03-01T07:06:03;31;;;18;;
75342;SDS011;63936;51.006;13.764;2023-03-01T07:08:03;34;;;20;;
75342;SDS011;63936;51.006;13.764;2023-03-01T07:10:04;32;;;17;;
75342;SDS011;63936;51.006;13.764;2023-03-01T07:12:04;29;;;17;;
75342;SDS011;63936;51.006;13.764;2023-03-01T07:14:02;30;;;17;;
75342;SDS011;63936;51.006;13.764;2023-03-01T07:16:02;28;;;17;;
75342;SDS011;63936;51.006;13.764;2023-03-01T07:18:02;34;;;18;;
75342;SDS011;63936;51.006;13.764;2023-03-01T07:20:04;29;;;18;;
75342;SDS011;63936;51.006;13.764;2023-03-01T07:22:03;29;;;18;;
75342;SDS011;63936;51.006;13.764;2023-03-01T07:24:03;34;;;20;;
75342;SDS011;63936;51.006;13.764;2023-03-01T07:26:02;31;;;19;;
75342;SDS011;63936;51.006;13.764;2023-03-01T07:28:03;34;;;21;;
75342;SDS011;63936;51.006;13.764;2023-03-01T07:30:09;33;;;21;;
75342;SDS011;63936;51.006;13.764;2023-03-01T07:32:05;34;;;20;;
75342;SDS011;63936;51.006;13.764;2023-03-01T07:34:02;34;;;21;;
75342;SDS011;63936;51.006;13.764;2023-03-01T07:36:04;34;;;21;;
75342;SDS011;63936;51.006;13.764;2023-03-01T07:38:02;37;;;21;;
75342;SDS011;63936;51.006;13.764;2023-03-01T07:40:06;33;;;21;;
75342;SDS011;63936;51.006;13.764;2023-03-01T07:42:03;33;;;21;;
75342;SDS011;63936;51.006;13.764;2023-03-01T07:44:02;33;;;21;;
75342;SDS011;63936;51.006;13.764;2023-03-01T07:46:03;35;;;23;;
75342;SDS011;63936;51.006;13.764;2023-03-01T07:48:03;35;;;22;;
75342;SDS011;63936;51.006;13.764;2023-03-01T07:50:10;32;;;21;;
75342;SDS011;63936;51.006;13.764;2023-03-01T07:52:03;35;;;21;;
75342;SDS011;63936;51.006;13.764;2023-03-01T07:54:02;31;;;21;;
75342;SDS011;63936;51.006;13.764;2023-03-01T07:56:04;32;;;21;;
75342;SDS011;63936;51.006;13.764;2023-03-01T07:58:02;33;;;24;;
75342;SDS011;63936;51.006;13.764;2023-03-01T08:00:10;30;;;23;;
75342;SDS011;63936;51.006;13.764;2023-03-01T08:02:05;32;;;22;;
75342;SDS011;63936;51.006;13.764;2023-03-01T08:04:03;31;;;21;;
75342;SDS011;63936;51.006;13.764;2023-03-01T08:06:06;34;;;25;;
75342;SDS011;63936;51.006;13.764;2023-03-01T08:08:01;35;;;24;;
75342;SDS011;63936;51.006;13.764;2023-03-01T08:10:07;35;;;25;;
75342;SDS011;63936;51.006;13.764;2023-03-01T08:12:02;34;;;24;;
75342;SDS011;63936;51.006;13.764;2023-03-01T08:14:02;33;;;26;;
75342;SDS011;63936;51.006;13.764;2023-03-01T08:16:04;32;;;23;;
75342;SDS011;63936;51.006;13.764;2023-03-01T08:18:01;31;;;19;;
75342;SDS011;63936;51.006;13.764;2023-03-01T08:20:03;34;;;23;;
75342;SDS011;63936;51.006;13.764;2023-03-01T08:22:02;31;;;23;;
75342;SDS011;63936;51.006;13.764;2023-03-01T08:24:02;30;;;21;;
75342;SDS011;63936;51.006;13.764;2023-03-01T08:26:03;28;;;24;;
75342;SDS011;63936;51.006;13.764;2023-03-01T08:28:02;28;;;19;;
75342;SDS011;63936;51.006;13.764;2023-03-01T08:30:03;27;;;21;;
75342;SDS011;63936;51.006;13.764;2023-03-01T08:32:02;28;;;23;;
75342;SDS011;63936;51.006;13.764;2023-03-01T08:34:03;29;;;22;;
75342;SDS011;63936;51.006;13.764;2023-03-01T08:36:02;29;;;19;;
75342;SDS011;63936;51.006;13.764;2023-03-01T08:38:01;27;;;20;;
75342;SDS011;63936;51.006;13.764;2023-03-01T08:40:03;26;;;22;;
75342;SDS011;63936;51.006;13.764;2023-03-01T08:42:02;30;;;22;;
75342;SDS011;63936;51.006;13.764;2023-03-01T08:44:02;28;;;18;;
75342;SDS011;63936;51.006;13.764;2023-03-01T08:46:01;27;;;20;;
75342;SDS011;63936;51.006;13.764;2023-03-01T08:48:02;29;;;22;;
75342;SDS011;63936;51.006;13.764;2023-03-01T08:50:04;27;;;22;;
75342;SDS011;63936;51.006;13.764;2023-03-01T08:52:01;29;;;23;;
75342;SDS011;63936;51.006;13.764;2023-03-01T08:54:02;26;;;22;;
75342;SDS011;63936;51.006;13.764;2023-03-01T08:56:02;28;;;23;;
75342;SDS011;63936;51.006;13.764;2023-03-01T08:58:02;26;;;21;;
75342;SDS011;63936;51.006;13.764;2023-03-01T09:00:05;27;;;22;;
75342;SDS011;63936;51.006;13.764;2023-03-01T09:02:01;26;;;22;;
75342;SDS011;63936;51.006;13.764;2023-03-01T09:04:02;27;;;19;;
75342;SDS011;63936;51.006;13.764;2023-03-01T09:06:03;26;;;22;;
75342;SDS011;63936;51.006;13.764;2023-03-01T09:08:01;26;;;21;;
75342;SDS011;63936;51.006;13.764;2023-03-01T09:10:05;26;;;22;;
75342;SDS011;63936;51.006;13.764;2023-03-01T09:12:02;26;;;21;;
75342;SDS011;63936;51.006;13.764;2023-03-01T09:14:04;25;;;21;;
75342;SDS011;63936;51.006;13.764;2023-03-01T09:16:02;27;;;22;;
75342;SDS011;63936;51.006;13.764;2023-03-01T09:18:01;25;;;20;;
75342;SDS011;63936;51.006;13.764;2023-03-01T09:20:03;26;;;21;;
75342;SDS011;63936;51.006;13.764;2023-03-01T09:22:03;26;;;21;;
75342;SDS011;63936;51.006;13.764;2023-03-01T09:24:02;24;;;20;;
75342;SDS011;63936;51.006;13.764;2023-03-01T09:26:03;26;;;21;;
75342;SDS011;63936;51.006;13.764;2023-03-01T09:28:02;24;;;20;;
75342;SDS011;63936;51.006;13.764;2023-03-01T09:30:04;26;;;21;;
75342;SDS011;63936;51.006;13.764;2023-03-01T09:32:02;25;;;20;;
75342;SDS011;63936;51.006;13.764;2023-03-01T09:34:02;26;;;21;;
75342;SDS011;63936;51.006;13.764;2023-03-01T09:36:02;24;;;21;;
75342;SDS011;63936;51.006;13.764;2023-03-01T09:38:01;24;;;20;;
75342;SDS011;63936;51.006;13.764;2023-03-01T09:40:03;23;;;21;;
75342;SDS011;63936;51.006;13.764;2023-03-01T09:42:02;25;;;21;;
75342;SDS011;63936;51.006;13.764;2023-03-01T09:44:02;24;;;21;;
75342;SDS011;63936;51.006;13.764;2023-03-01T09:46:03;24;;;20;;
75342;SDS011;63936;51.006;13.764;2023-03-01T09:48:01;24;;;20;;
75342;SDS011;63936;51.006;13.764;2023-03-01T09:50:04;23;;;20;;
75342;SDS011;63936;51.006;13.764;2023-03-01T09:52:03;24;;;20;;
75342;SDS011;63936;51.006;13.764;2023-03-01T09:54:01;25;;;21;;
75342;SDS011;63936;51.006;13.764;2023-03-01T09:56:02;25;;;19;;
75342;SDS011;63936;51.006;13.764;2023-03-01T09:58:05;24;;;20;;
75342;SDS011;63936;51.006;13.764;2023-03-01T10:00:09;24;;;21;;
75342;SDS011;63936;51.006;13.764;2023-03-01T10:02:05;24;;;21;;
75342;SDS011;63936;51.006;13.764;2023-03-01T10:04:04;24;;;21;;
75342;SDS011;63936;51.006;13.764;2023-03-01T10:06:04;26;;;21;;
75342;SDS011;63936;51.006;13.764;2023-03-01T10:08:11;24;;;22;;
75342;SDS011;63936;51.006;13.764;2023-03-01T10:10:03;25;;;21;;
75342;SDS011;63936;51.006;13.764;2023-03-01T10:12:02;25;;;21;;
75342;SDS011;63936;51.006;13.764;2023-03-01T10:14:03;25;;;21;;
75342;SDS011;63936;51.006;13.764;2023-03-01T10:16:03;25;;;21;;
75342;SDS011;63936;51.006;13.764;2023-03-01T10:18:03;24;;;21;;
75342;SDS011;63936;51.006;13.764;2023-03-01T10:20:14;26;;;21;;
75342;SDS011;63936;51.006;13.764;2023-03-01T10:22:03;24;;;21;;
75342;SDS011;63936;51.006;13.764;2023-03-01T10:24:07;25;;;21;;
75342;SDS011;63936;51.006;13.764;2023-03-01T10:26:08;23;;;20;;
75342;SDS011;63936;51.006;13.764;2023-03-01T10:28:02;24;;;20;;
75342;SDS011;63936;51.006;13.764;2023-03-01T10:30:05;24;;;21;;
75342;SDS011;63936;51.006;13.764;2023-03-01T10:32:01;24;;;21;;
75342;SDS011;63936;51.006;13.764;2023-03-01T10:34:01;24;;;21;;
75342;SDS011;63936;51.006;13.764;2023-03-01T10:36:02;25;;;21;;
75342;SDS011;63936;51.006;13.764;2023-03-01T10:38:03;23;;;20;;
75342;SDS011;63936;51.006;13.764;2023-03-01T10:40:02;23;;;21;;
75342;SDS011;63936;51.006;13.764;2023-03-01T10:42:02;23;;;20;;
75342;SDS011;63936;51.006;13.764;2023-03-01T10:44:01;23;;;21;;
75342;SDS011;63936;51.006;13.764;2023-03-01T10:46:01;22;;;20;;
75342;SDS011;63936;51.006;13.764;2023-03-01T10:48:03;25;;;21;;
75342;SDS011;63936;51.006;13.764;2023-03-01T10:50:02;23;;;20;;
75342;SDS011;63936;51.006;13.764;2023-03-01T10:52:11;23;;;21;;
75342;SDS011;63936;51.006;13.764;2023-03-01T10:54:01;24;;;20;;
75342;SDS011;63936;51.006;13.764;2023-03-01T10:56:03;25;;;21;;
75342;SDS011;63936;51.006;13.764;2023-03-01T10:58:17;23;;;20;;
75342;SDS011;63936;51.006;13.764;2023-03-01T11:00:33;23;;;20;;
75342;SDS011;63936;51.006;13.764;2023-03-01T11:02:04;23;;;20;;
75342;SDS011;63936;51.006;13.764;2023-03-01T11:04:07;24;;;21;;
75342;SDS011;63936;51.006;13.764;2023-03-01T11:06:03;21;;;18;;
75342;SDS011;63936;51.006;13.764;2023-03-01T11:08:01;20;;;18;;
75342;SDS011;63936;51.006;13.764;2023-03-01T11:10:08;23;;;18;;
75342;SDS011;63936;51.006;13.764;2023-03-01T11:12:02;21;;;18;;
75342;SDS011;63936;51.006;13.764;2023-03-01T11:14:03;20;;;17;;
75342;SDS011;63936;51.006;13.764;2023-03-01T11:16:02;20;;;17;;
75342;SDS011;63936;51.006;13.764;2023-03-01T11:18:02;19;;;16;;
75342;SDS011;63936;51.006;13.764;2023-03-01T11:20:06;20;;;16;;
75342;SDS011;63936;51.006;13.764;2023-03-01T11:22:02;19;;;16;;
75342;SDS011;63936;51.006;13.764;2023-03-01T11:24:01;20;;;17;;
75342;SDS011;63936;51.006;13.764;2023-03-01T11:26:02;18;;;16;;
75342;SDS011;63936;51.006;13.764;2023-03-01T11:28:02;18;;;16;;
75342;SDS011;63936;51.006;13.764;2023-03-01T11:30:03;19;;;17;;
75342;SDS011;63936;51.006;13.764;2023-03-01T11:32:03;19;;;17;;
75342;SDS011;63936;51.006;13.764;2023-03-01T11:34:04;19;;;16;;
75342;SDS011;63936;51.006;13.764;2023-03-01T11:36:01;19;;;17;;
75342;SDS011;63936;51.006;13.764;2023-03-01T11:38:04;18;;;15;;
75342;SDS011;63936;51.006;13.764;2023-03-01T11:40:04;17;;;15;;
75342;SDS011;63936;51.006;13.764;2023-03-01T11:42:10;18;;;16;;
75342;SDS011;63936;51.006;13.764;2023-03-01T11:44:02;18;;;16;;
75342;SDS011;63936;51.006;13.764;2023-03-01T11:46:11;17;;;15;;
75342;SDS011;63936;51.006;13.764;2023-03-01T11:48:05;17;;;15;;
75342;SDS011;63936;51.006;13.764;2023-03-01T11:50:05;18;;;16;;
75342;SDS011;63936;51.006;13.764;2023-03-01T11:52:02;19;;;16;;
75342;SDS011;63936;51.006;13.764;2023-03-01T11:54:04;18;;;16;;
75342;SDS011;63936;51.006;13.764;2023-03-01T11:56:04;18;;;16;;
75342;SDS011;63936;51.006;13.764;2023-03-01T11:58:07;17;;;15;;
75342;SDS011;63936;51.006;13.764;2023-03-01T12:00:05;17;;;14;;
75342;SDS011;63936;51.006;13.764;2023-03-01T12:02:14;17;;;15;;
75342;SDS011;63936;51.006;13.764;2023-03-01T12:04:06;17;;;15;;
75342;SDS011;63936;51.006;13.764;2023-03-01T12:06:07;16;;;14;;
75342;SDS011;63936;51.006;13.764;2023-03-01T12:08:02;16;;;14;;
75342;SDS011;63936;51.006;13.764;2023-03-01T12:10:13;16;;;14;;
75342;SDS011;63936;51.006;13.764;2023-03-01T12:12:06;17;;;15;;
75342;SDS011;63936;51.006;13.764;2023-03-01T12:14:12;15;;;13;;
75342;SDS011;63936;51.006;13.764;2023-03-01T12:16:06;15;;;13;;
75342;SDS011;63936;51.006;13.764;2023-03-01T12:18:09;16;;;13;;
75342;SDS011;63936;51.006;13.764;2023-03-01T12:20:07;15;;;13;;
75342;SDS011;63936;51.006;13.764;2023-03-01T12:22:06;16;;;14;;
75342;SDS011;63936;51.006;13.764;2023-03-01T12:24:06;17;;;15;;
75342;SDS011;63936;51.006;13.764;2023-03-01T12:26:02;17;;;14;;
75342;SDS011;63936;51.006;13.764;2023-03-01T12:28:14;18;;;14;;
75342;SDS011;63936;51.006;13.764;2023-03-01T12:30:05;17;;;14;;
75342;SDS011;63936;51.006;13.764;2023-03-01T12:32:21;17;;;14;;
75342;SDS011;63936;51.006;13.764;2023-03-01T12:34:02;17;;;15;;
75342;SDS011;63936;51.006;13.764;2023-03-01T12:36:07;17;;;15;;